Latest Weather Observations for Rhyll

IDV60801

Issued at 9:05 am EDT Sunday 26 October 2014 (issued every 30 minutes, with the page automatically refreshed every 10 minutes)

About weather observations | Map of weather stations | Latest weather observations for VIC | Other Formats
Station Details ID: 086373 Name: RHYLL Lat: -38.46 Lon: 145.31 Height: 13.4 m
Data from the previous 72 hours. | See also: Recent months at Rhyll
Date/Time
EDT
Temp
°C
App
Temp
°C
Dew
Point
Rel
Hum
%
Delta-T
°C
Wind Press
QNH
hPa
Press
MSL
hPa
Rain
since 9 am
mm
Dir
 
Spd
km/h
Gust
km/h
Spd
kts
Gust
kts
26/09:00am 13.4 12.2 9.6 78 1.9 SSW 6 11 3 6 1014.8 1014.8 0.0
26/08:30am 13.1 11.3 9.4 78 1.9 SW 9 15 5 8 1014.5 1014.5 0.0
26/08:00am 13.3 11.9 9.5 78 1.9 SW 7 15 4 8 1014.2 1014.2 0.0
26/07:30am 13.0 11.6 9.4 79 1.8 SW 7 11 4 6 1013.7 1013.7 0.0
26/07:00am 12.8 11.6 9.6 81 1.6 W 6 7 3 4 1013.8 1013.8 0.0
26/06:30am 12.8 11.7 9.8 82 1.5 W 6 7 3 4 1013.7 1013.7 0.0
26/06:00am 12.9 11.7 9.7 81 1.6 WSW 6 7 3 4 1013.4 1013.4 0.0
26/05:30am 13.0 12.6 9.8 81 1.6 WSW 2 4 1 2 1013.4 1013.4 0.0
26/05:00am 13.1 12.4 9.9 81 1.6 S 4 9 2 5 1013.5 1013.5 0.0
26/04:30am 13.0 11.8 9.6 80 1.7 S 6 7 3 4 1013.3 1013.3 0.0
26/04:00am 13.1 11.8 9.9 81 1.6 S 7 13 4 7 1013.4 1013.4 0.0
26/03:30am 13.1 12.0 9.9 81 1.6 S 6 11 3 6 1013.3 1013.3 0.0
26/03:00am 13.2 12.1 9.8 80 1.7 S 6 11 3 6 1013.5 1013.5 0.0
26/02:30am 13.2 11.8 9.6 79 1.8 S 7 13 4 7 1014.2 1014.2 0.0
26/02:00am 12.9 11.7 9.7 81 1.6 SW 6 9 3 5 1014.5 1014.5 0.0
26/01:30am 12.9 11.8 10.1 83 1.4 S 6 11 3 6 1014.9 1014.9 0.0
26/01:00am 12.1 11.2 9.3 83 1.4 SE 4 7 2 4 1015.1 1015.1 0.0
26/12:30am 12.4 11.1 9.1 80 1.7 S 6 9 3 5 1015.4 1015.4 0.0
26/12:00am 13.3 11.9 9.5 78 1.9 SSW 7 13 4 7 1015.8 1015.8 0.0
 
Date/Time
EDT
Temp
°C
App
Temp
°C
Dew
Point
Rel
Hum
%
Delta-T
°C
Wind Press
QNH
hPa
Press
MSL
hPa
Rain
since 9 am
mm
Dir
 
Spd
km/h
Gust
km/h
Spd
kts
Gust
kts
25/11:30pm 13.4 12.0 9.6 78 1.9 S 7 11 4 6 1016.4 1016.4 0.0
25/11:00pm 13.5 12.2 9.9 79 1.9 S 7 13 4 7 1016.5 1016.5 0.0
25/10:30pm 13.6 12.3 9.8 78 2.0 S 7 11 4 6 1016.5 1016.5 0.0
25/10:00pm 13.8 12.6 10.2 79 1.9 S 7 13 4 7 1016.7 1016.7 0.0
25/09:30pm 13.8 12.5 10.0 78 2.0 S 7 13 4 7 1016.7 1016.7 0.0
25/09:00pm 13.8 12.1 10.0 78 2.0 SSW 9 15 5 8 1016.5 1016.5 0.0
25/08:30pm 13.9 12.7 10.3 79 1.9 S 7 13 4 7 1016.2 1016.2 0.0
25/08:00pm 14.1 12.7 10.9 81 1.7 S 9 13 5 7 1016.3 1016.3 0.0
25/07:30pm 14.4 13.6 11.6 83 1.5 S 7 13 4 7 1015.9 1015.9 0.0
25/07:00pm 14.3 12.9 10.9 80 1.8 S 9 17 5 9 1016.1 1016.1 0.0
25/06:30pm 14.9 13.9 11.1 78 2.0 S 7 13 4 7 1015.7 1015.7 0.0
25/06:00pm 15.2 14.4 11.6 79 1.9 S 7 11 4 6 1015.6 1015.6 0.0
25/05:30pm 15.5 14.2 11.1 75 2.3 S 9 15 5 8 1015.6 1015.6 0.0
25/05:00pm 15.6 13.7 10.6 72 2.6 S 11 19 6 10 1015.5 1015.5 0.0
25/04:30pm 16.6 14.9 11.1 70 3.0 S 11 17 6 9 1015.4 1015.4 0.0
25/04:00pm 17.4 16.3 12.1 71 2.9 S 9 13 5 7 1015.4 1015.4 0.0
25/03:30pm 17.3 16.7 12.2 72 2.8 S 7 15 4 8 1015.7 1015.7 0.0
25/03:00pm 16.4 15.1 11.3 72 2.7 S 9 15 5 8 1015.9 1015.9 0.0
25/02:30pm 15.4 13.8 10.2 71 2.7 S 9 17 5 9 1016.3 1016.3 0.0
25/02:00pm 15.6 14.6 11.0 74 2.4 S 7 13 4 7 1016.5 1016.5 0.0
25/01:30pm 16.6 16.2 11.1 70 3.0 SE 4 6 2 3 1016.7 1016.7 0.0
25/01:00pm 16.0 15.3 10.1 68 3.1 SE 4 7 2 4 1016.7 1016.7 0.0
25/12:30pm 16.9 16.0 10.7 67 3.3 S 6 9 3 5 1016.9 1016.9 0.0
25/12:00pm 17.2 16.8 11.0 67 3.3 S 4 9 2 5 1017.3 1017.3 0.0
25/11:30am 17.7 17.2 11.9 69 3.2 S 6 11 3 6 1017.5 1017.5 0.0
25/11:00am 16.3 15.5 11.2 72 2.7 SSE 6 11 3 6 1017.5 1017.5 0.0
25/10:30am 14.9 13.8 10.5 75 2.3 SSW 7 11 4 6 1018.1 1018.1 0.0
25/10:00am 15.2 14.1 10.6 74 2.4 SSW 7 13 4 7 1018.0 1018.0 0.0
25/09:30am 14.7 13.7 10.3 75 2.3 SSW 6 11 3 6 1018.1 1018.1 0.0
25/09:00am 14.4 14.1 11.4 82 1.6 SSE 4 6 2 3 1018.0 1018.0 0.0
25/08:30am 13.4 12.4 10.9 85 1.3 SW 7 11 4 6 1018.2 1018.2 0.0
25/08:00am 13.8 13.0 11.0 83 1.5 W 6 7 3 4 1017.9 1017.9 0.0
25/07:30am 13.6 12.8 11.0 84 1.4 SW 6 9 3 5 1017.6 1017.6 0.0
25/07:00am 12.9 12.2 11.3 90 0.8 SW 6 9 3 5 1017.4 1017.4 0.0
25/06:30am 13.1 12.8 11.3 89 1.0 W 4 9 2 5 1017.1 1017.1 0.0
25/06:00am 13.1 12.4 11.3 89 0.9 SW 6 11 3 6 1016.8 1016.8 0.0
25/05:30am 13.4 12.9 10.8 84 1.4 W 4 6 2 3 1016.6 1016.6 0.0
25/05:00am 13.2 12.3 10.7 85 1.3 SW 6 9 3 5 1016.3 1016.3 0.0
25/04:30am 13.1 11.3 11.0 87 1.1 WSW 11 24 6 13 1016.2 1016.2 0.0
25/04:00am 13.7 12.4 11.2 85 1.3 WSW 9 17 5 9 1016.2 1016.2 0.0
25/03:30am 14.0 12.9 10.8 81 1.7 WSW 7 17 4 9 1016.1 1016.1 0.0
25/03:00am 14.1 12.4 11.1 82 1.6 WSW 11 20 6 11 1016.2 1016.2 0.0
25/02:30am 14.0 12.3 11.3 84 1.4 WSW 11 17 6 9 1016.3 1016.3 0.0
25/02:00am 14.3 13.0 11.1 81 1.7 WSW 9 19 5 10 1016.4 1016.4 0.0
25/01:30am 14.2 12.0 10.8 80 1.8 WSW 13 26 7 14 1016.5 1016.5 0.0
25/01:00am 14.2 12.4 10.8 80 1.8 WSW 11 17 6 9 1016.6 1016.6 0.0
25/12:30am 14.4 13.2 11.6 83 1.5 WSW 9 19 5 10 1016.5 1016.5 0.0
25/12:00am 14.5 13.4 11.8 84 1.5 WSW 9 20 5 11 1016.3 1016.3 0.0
 
Date/Time
EDT
Temp
°C
App
Temp
°C
Dew
Point
Rel
Hum
%
Delta-T
°C
Wind Press
QNH
hPa
Press
MSL
hPa
Rain
since 9 am
mm
Dir
 
Spd
km/h
Gust
km/h
Spd
kts
Gust
kts
24/11:30pm 14.6 13.5 12.1 85 1.4 WSW 9 15 5 8 1016.2 1016.2 0.0
24/11:00pm 14.5 13.9 12.2 86 1.2 WSW 7 11 4 6 1016.0 1016.0 0.0
24/10:30pm 14.5 13.5 12.2 86 1.2 WSW 9 19 5 10 1015.9 1015.9 0.0
24/10:00pm 14.3 13.7 12.3 88 1.1 SW 7 17 4 9 1015.5 1015.5 0.0
24/09:30pm 14.3 13.0 12.5 89 1.0 SW 11 19 6 10 1014.9 1014.9 0.0
24/09:00pm 14.4 12.7 12.6 89 1.0 SW 13 20 7 11 1014.4 1014.4 0.0
24/08:30pm 14.7 11.9 12.7 88 1.1 SW 19 28 10 15 1013.7 1013.7 0.0
24/08:00pm 14.9 12.2 13.6 92 0.7 SW 20 33 11 18 1013.4 1013.4 0.0
24/07:30pm 15.4 12.5 13.9 91 0.8 SW 22 35 12 19 1012.5 1012.5 0.0
24/07:00pm 17.7 15.4 14.2 80 2.0 SW 19 32 10 17 1011.9 1011.9 0.0
24/06:30pm 18.4 16.9 14.1 76 2.5 SW 15 22 8 12 1011.2 1011.2 0.0
24/06:00pm 19.3 17.1 14.8 75 2.6 SSW 20 30 11 16 1010.4 1010.4 0.0
24/05:30pm 20.4 19.2 16.0 76 2.6 SSW 17 26 9 14 1010.3 1010.3 0.0
24/05:00pm 21.7 21.6 16.0 70 3.4 S 11 20 6 11 1010.0 1010.0 0.0
24/04:30pm 22.7 23.8 16.7 69 3.7 S 6 7 3 4 1009.9 1009.9 0.0
24/04:00pm 24.1 25.8 18.5 71 3.5 S 7 13 4 7 1010.1 1010.1 0.0
24/03:30pm 23.9 24.9 16.4 63 4.6 E 6 15 3 8 1010.0 1010.0 0.0
24/03:00pm 26.7 26.7 14.1 46 7.5 WSW 7 17 4 9 1010.2 1010.2 0.0
24/02:30pm 24.8 25.1 16.0 58 5.4 WNW 9 17 5 9 1010.6 1010.6 0.0
24/02:00pm 24.9 25.6 16.1 58 5.4 WNW 7 15 4 8 1010.6 1010.6 0.0
24/01:30pm 23.2 24.1 16.5 66 4.1 NNW 7 11 4 6 1010.6 1010.6 0.0
24/01:00pm 23.3 24.2 16.6 66 4.1 NNW 7 13 4 7 1010.7 1010.7 0.0
24/12:30pm 21.6 22.4 16.3 72 3.2 NNW 7 11 4 6 1010.9 1010.9 0.0
24/12:00pm 21.6 22.8 15.9 70 3.4 NE 4 6 2 3 1011.2 1011.2 0.0
24/11:30am 20.2 21.2 15.4 74 2.8 NNE 4 6 2 3 1011.5 1011.5 0.0
24/11:00am 20.1 21.6 15.7 76 2.6 ENE 2 6 1 3 1011.7 1011.7 0.0
24/10:30am 20.2 21.4 15.8 76 2.6 E 4 6 2 3 1011.7 1011.7 0.0
24/10:00am 20.5 21.1 15.7 74 2.9 E 7 7 4 4 1011.7 1011.7 0.0
24/09:30am 19.6 20.3 15.5 77 2.4 E 6 6 3 3 1011.9 1011.9 0.0
24/09:00am 19.1 20.4 16.1 83 1.8 ENE 4 6 2 3 1012.2 1012.2 0.0
24/08:30am 17.1 17.7 15.3 89 1.0 N 6 7 3 4 1012.5 1012.5 0.0
24/08:00am 16.0 16.5 15.0 94 0.6 N 6 7 3 4 1012.4 1012.4 0.0
24/07:30am 15.4 15.7 14.6 95 0.5 NNW 6 7 3 4 1012.4 1012.4 0.0
24/07:00am 15.2 16.2 14.4 95 0.5 WNW 2 4 1 2 1012.4 1012.4 0.0
24/06:30am 14.8 16.1 14.0 95 0.5 CALM 0 0 0 0 1012.4 1012.4 0.0
24/06:00am 15.2 16.2 14.2 94 0.6 E 2 4 1 2 1012.6 1012.6 0.0
24/05:30am 14.5 15.2 13.4 93 0.6 E 2 4 1 2 1012.6 1012.6 0.0
24/05:00am 15.4 15.6 14.3 93 0.6 E 6 7 3 4 1012.6 1012.6 0.0
24/04:30am 15.6 15.6 14.1 91 0.8 E 7 9 4 5 1012.6 1012.6 0.0
24/04:00am 16.1 15.8 14.5 90 0.9 E 9 11 5 6 1012.9 1012.9 0.0
24/03:30am 16.4 15.4 14.6 89 1.0 E 13 15 7 8 1013.2 1013.2 0.0
24/03:00am 16.3 14.9 14.5 89 1.0 E 15 17 8 9 1013.6 1013.6 0.0
24/02:30am 16.1 14.2 14.3 89 1.0 E 17 20 9 11 1014.1 1014.1 0.0
24/02:00am 16.2 13.7 14.2 88 1.1 E 20 26 11 14 1014.5 1014.5 0.0
24/01:30am 16.3 13.4 14.1 87 1.2 E 22 28 12 15 1014.9 1014.9 0.0
24/01:00am 16.2 13.3 14.0 87 1.2 E 22 30 12 16 1015.3 1015.3 0.0
24/12:30am 16.1 13.5 13.9 87 1.2 E 20 26 11 14 1015.6 1015.6 0.0
24/12:00am 16.0 13.5 14.0 88 1.1 E 20 26 11 14 1016.0 1016.0 0.0
 
Date/Time
EDT
Temp
°C
App
Temp
°C
Dew
Point
Rel
Hum
%
Delta-T
°C
Wind Press
QNH
hPa
Press
MSL
hPa
Rain
since 9 am
mm
Dir
 
Spd
km/h
Gust
km/h
Spd
kts
Gust
kts
23/11:30pm 15.7 13.0 13.5 87 1.2 E 20 26 11 14 1016.1 1016.1 0.0
23/11:00pm 15.8 13.1 13.6 87 1.2 E 20 24 11 13 1016.6 1016.6 0.0
23/10:30pm 15.9 12.9 13.6 86 1.3 E 22 28 12 15 1016.8 1016.8 0.0
23/10:00pm 16.0 12.2 13.7 86 1.3 ESE 26 32 14 17 1017.1 1017.1 0.0
23/09:30pm 15.9 12.1 13.6 86 1.3 ESE 26 32 14 17 1017.2 1017.2 0.0
23/09:00pm 16.0 11.9 13.7 86 1.3 E 28 33 15 18 1017.1 1017.1 0.0
23/08:30pm 16.1 12.0 13.8 86 1.3 E 28 33 15 18 1017.0 1017.0 0.0
23/08:00pm 16.0 11.4 13.5 85 1.4 E 30 37 16 20 1016.9 1016.9 0.0
23/07:30pm 16.5 11.9 13.6 83 1.6 ESE 30 39 16 21 1017.0 1017.0 0.0
23/07:00pm 17.1 12.7 14.0 82 1.8 E 30 37 16 20 1017.0 1017.0 0.0
23/06:30pm 17.3 12.3 14.0 81 1.9 E 33 41 18 22 1016.7 1016.7 0.0
23/06:00pm 17.6 12.7 14.3 81 1.9 E 33 39 18 21 1016.9 1016.9 0.0
23/05:30pm 17.9 13.0 14.4 80 2.0 E 33 41 18 22 1017.0 1017.0 0.0
23/05:00pm 17.9 13.2 14.8 82 1.8 E 33 43 18 23 1017.1 1017.1 0.0
23/04:30pm 17.4 12.6 14.5 83 1.7 ESE 33 41 18 22 1017.2 1017.2 0.0
23/04:00pm 17.1 12.9 14.6 85 1.4 ESE 30 41 16 22 1017.3 1017.3 0.0
23/03:30pm 17.1 11.5 14.4 84 1.5 ESE 37 43 20 23 1017.6 1017.6 0.0
23/03:00pm 17.3 12.6 14.8 85 1.4 ESE 33 39 18 21 1017.9 1017.9 0.0
23/02:30pm 17.1 12.9 14.7 86 1.4 ESE 30 35 16 19 1018.2 1018.2 0.0
23/02:00pm 17.3 14.0 15.1 87 1.3 ESE 26 32 14 17 1018.5 1018.5 0.0
23/01:30pm 17.3 17.1 14.8 85 1.4 SSE 9 13 5 7 1019.0 1019.0 0.0
23/01:00pm 17.2 16.9 14.5 84 1.5 S 9 13 5 7 1019.3 1019.3 0.0
23/12:30pm 16.5 16.5 14.2 86 1.3 S 7 11 4 6 1019.9 1019.9 0.0
23/12:00pm 16.2 16.9 13.5 84 1.5 S 2 4 1 2 1020.3 1020.3 0.0
23/11:30am 15.8 16.1 13.5 86 1.3 E 4 6 2 3 1020.4 1020.4 0.0
23/11:00am 15.2 15.1 13.2 88 1.1 ESE 6 7 3 4 1020.8 1020.8 0.0
23/10:30am 15.2 15.8 13.2 88 1.1 E 2 4 1 2 1021.0 1021.0 0.0
23/10:00am 14.9 15.8 12.9 88 1.1 CALM 0 4 0 2 1020.7 1020.7 0.0
23/09:30am 14.7 15.3 13.1 90 0.9 ESE 2 6 1 3 1020.5 1020.5 0.0

Other Formats:

Comma delimited format used in spreadsheet applications
http://www.bom.gov.au/fwo/IDV60801/IDV60801.94892.axf

JavaScript Object Notation format (JSON) in row-major order
http://www.bom.gov.au/fwo/IDV60801/IDV60801.94892.json